Time;durP1;ratioP1;P1;durP2;ratioP2;P2;SDS_P1;SDS_P2;PMS_P1;PMS_P2;Temp;Humidity;BMP_temperature;BMP_pressure;BME280_temperature;BME280_humidity;BME280_pressure;Samples;Min_cycle;Max_cycle;Signal;HPM_P1;HPM_P2
2022/01/03 00:01:07;;;;;;;13.43;2.80;;;10.90;99.90;;;;;;5036899;28;20108;-85
2022/01/03 00:03:33;;;;;;;16.83;4.43;;;10.90;99.90;;;;;;5036251;28;20047;-84
2022/01/03 00:05:58;;;;;;;21.25;3.60;;;10.90;99.90;;;;;;5036636;28;20124;-89
2022/01/03 00:08:24;;;;;;;23.45;3.63;;;10.90;99.90;;;;;;5035725;28;20033;-84
2022/01/03 00:10:51;;;;;;;18.67;3.67;;;10.90;99.90;;;;;;5040183;28;20093;-86
2022/01/03 00:13:20;;;;;;;22.30;3.65;;;10.90;99.90;;;;;;5042024;28;20080;-85
2022/01/03 00:15:46;;;;;;;19.00;3.42;;;10.90;99.90;;;;;;5038068;28;20037;-89
2022/01/03 00:18:12;;;;;;;23.90;3.90;;;10.90;99.90;;;;;;5041917;28;20067;-88
2022/01/03 00:20:43;;;;;;;24.05;4.18;;;10.80;99.90;;;;;;5043981;28;20395;-84
2022/01/03 00:23:10;;;;;;;24.23;4.07;;;10.80;99.90;;;;;;5025772;28;20261;-84
2022/01/03 00:25:38;;;;;;;23.80;4.10;;;10.80;99.90;;;;;;5044360;28;20013;-84
2022/01/03 00:28:36;;;;;;;24.63;4.45;;;10.90;99.90;;;;;;5038937;28;20028;-87
2022/01/03 00:31:04;;;;;;;22.60;3.47;;;10.90;99.90;;;;;;5024208;28;20033;-89
2022/01/03 00:33:33;;;;;;;31.10;4.30;;;10.80;99.90;;;;;;5035506;28;20025;-88
2022/01/03 00:36:03;;;;;;;24.35;3.85;;;10.90;99.90;;;;;;5037971;28;20045;-87
2022/01/03 00:38:35;;;;;;;24.75;4.60;;;10.80;99.90;;;;;;5037967;28;20033;-90
2022/01/03 00:41:01;;;;;;;24.90;4.30;;;10.80;99.90;;;;;;5037256;28;20097;-86
2022/01/03 00:43:31;;;;;;;26.38;4.40;;;10.80;99.90;;;;;;5037645;28;20044;-87
2022/01/03 00:45:57;;;;;;;21.17;3.63;;;10.80;99.90;;;;;;5036190;28;20010;-88
2022/01/03 00:48:24;;;;;;;24.65;4.45;;;10.80;99.90;;;;;;5035260;28;20185;-88
2022/01/03 00:50:51;;;;;;;24.92;4.07;;;10.80;99.90;;;;;;5035172;28;20057;-88
2022/01/03 00:53:17;;;;;;;21.05;4.22;;;10.80;99.90;;;;;;5039839;28;20076;-87
2022/01/03 00:56:04;;;;;;;22.23;4.10;;;10.80;99.90;;;;;;5045294;28;20028;-86
2022/01/03 00:58:53;;;;;;;22.38;3.97;;;10.80;99.90;;;;;;5046826;28;20140;-85
2022/01/03 01:01:19;;;;;;;21.48;4.18;;;10.80;99.90;;;;;;5046994;28;20048;-86
2022/01/03 01:03:47;;;;;;;24.10;4.05;;;10.90;99.90;;;;;;5046317;28;20026;-85
2022/01/03 01:06:14;;;;;;;27.50;5.22;;;10.80;99.90;;;;;;5036305;28;20018;-87
2022/01/03 01:08:40;;;;;;;19.85;3.78;;;10.80;99.90;;;;;;5032169;28;20113;-87
2022/01/03 01:11:08;;;;;;;22.85;4.57;;;10.80;99.90;;;;;;5036101;28;20018;-88
2022/01/03 01:13:35;;;;;;;22.17;4.22;;;10.80;99.90;;;;;;5035658;28;20328;-88
2022/01/03 01:16:06;;;;;;;24.80;4.82;;;10.80;99.90;;;;;;5035041;28;20375;-88
2022/01/03 01:18:36;;;;;;;22.17;4.05;;;10.80;99.90;;;;;;5035081;28;20108;-88
2022/01/03 01:21:06;;;;;;;22.88;4.75;;;10.80;99.90;;;;;;5033417;28;20030;-87
2022/01/03 01:23:33;;;;;;;24.52;4.72;;;10.70;99.90;;;;;;5034714;28;20168;-88
2022/01/03 01:28:43;;;;;;;18.75;3.85;;;10.70;99.90;;;;;;5034827;28;20048;-87
2022/01/03 01:31:12;;;;;;;23.65;4.03;;;10.70;99.90;;;;;;5034870;28;20017;-87
2022/01/03 01:33:39;;;;;;;27.02;4.05;;;10.70;99.90;;;;;;5034823;28;20039;-87
2022/01/03 01:36:06;;;;;;;26.55;5.63;;;10.70;99.90;;;;;;5034450;28;20475;-87
2022/01/03 01:38:35;;;;;;;27.17;3.85;;;10.70;99.90;;;;;;5032550;28;20041;-87
2022/01/03 01:41:06;;;;;;;22.60;3.72;;;10.60;99.90;;;;;;5035291;28;20029;-86
2022/01/03 01:43:42;;;;;;;22.92;4.32;;;10.70;99.90;;;;;;5036227;28;20038;-85
2022/01/03 01:46:12;;;;;;;25.95;3.95;;;10.60;99.90;;;;;;5035676;28;20115;-87
2022/01/03 01:48:40;;;;;;;23.70;4.35;;;10.60;99.90;;;;;;5033435;28;20475;-88
2022/01/03 01:51:08;;;;;;;25.65;4.47;;;10.60;99.90;;;;;;5033055;28;20045;-86
2022/01/03 01:53:44;;;;;;;23.83;3.60;;;10.60;99.90;;;;;;5034022;28;20391;-88
2022/01/03 01:56:24;;;;;;;24.70;3.60;;;10.60;99.90;;;;;;5034242;28;20036;-87
2022/01/03 01:59:15;;;;;;;23.08;3.88;;;10.60;99.90;;;;;;5037729;28;20049;-86
2022/01/03 02:01:51;;;;;;;20.35;3.75;;;10.70;99.90;;;;;;5038559;28;20037;-89
2022/01/03 02:04:18;;;;;;;25.50;3.88;;;10.70;99.90;;;;;;5034016;28;20032;-88
2022/01/03 02:06:46;;;;;;;24.02;4.57;;;10.70;99.90;;;;;;5034618;28;20029;-89
2022/01/03 02:09:35;;;;;;;24.80;3.92;;;10.70;99.90;;;;;;5033596;28;20383;-89
2022/01/03 02:12:05;;;;;;;23.00;4.25;;;10.60;99.90;;;;;;5034758;28;20028;-88
2022/01/03 02:14:36;;;;;;;21.23;4.00;;;10.60;99.90;;;;;;5033239;28;20029;-88
2022/01/03 02:17:02;;;;;;;24.75;3.75;;;10.70;99.90;;;;;;5032626;28;20045;-88
2022/01/03 02:19:28;;;;;;;22.67;3.97;;;10.70;99.90;;;;;;5032933;28;20152;-87
2022/01/03 02:21:54;;;;;;;24.00;3.50;;;10.60;99.90;;;;;;5034483;28;20519;-86
2022/01/03 02:24:19;;;;;;;24.60;4.03;;;10.60;99.90;;;;;;5032964;28;20095;-88
2022/01/03 02:26:45;;;;;;;24.58;4.18;;;10.60;99.90;;;;;;5032961;28;20120;-88
2022/01/03 02:29:10;;;;;;;20.70;3.83;;;10.70;99.90;;;;;;5034158;28;20026;-89
2022/01/03 02:31:36;;;;;;;21.05;4.10;;;10.70;99.90;;;;;;5032720;28;20052;-89
2022/01/03 02:34:03;;;;;;;23.67;4.43;;;10.60;99.90;;;;;;5034121;28;20100;-87
2022/01/03 02:36:33;;;;;;;24.15;3.90;;;10.70;99.90;;;;;;5034078;28;20018;-89
2022/01/03 02:38:59;;;;;;;28.88;4.13;;;10.60;99.90;;;;;;5034482;28;20075;-89
2022/01/03 02:41:25;;;;;;;23.15;5.10;;;10.60;99.90;;;;;;5032874;28;20021;-89
2022/01/03 02:43:51;;;;;;;22.02;3.72;;;10.60;99.90;;;;;;5032701;28;20193;-88
2022/01/03 02:46:18;;;;;;;25.35;4.72;;;10.60;99.90;;;;;;5032970;28;20014;-87
2022/01/03 02:48:43;;;;;;;26.20;5.10;;;10.60;99.90;;;;;;5033958;28;20021;-88
2022/01/03 02:51:11;;;;;;;22.15;4.85;;;10.60;99.90;;;;;;5033818;28;20054;-89
2022/01/03 02:53:37;;;;;;;26.00;4.03;;;10.50;99.90;;;;;;5033042;28;20030;-88
2022/01/03 02:56:03;;;;;;;28.63;4.65;;;10.50;99.90;;;;;;5034138;28;20128;-88
2022/01/03 02:58:30;;;;;;;29.58;4.93;;;10.50;99.90;;;;;;5032880;28;20061;-89
2022/01/03 03:00:56;;;;;;;24.08;4.32;;;10.50;99.90;;;;;;5033901;28;20533;-88
2022/01/03 03:03:24;;;;;;;18.70;3.85;;;10.50;99.90;;;;;;5033900;28;20064;-88
2022/01/03 03:05:50;;;;;;;25.30;4.22;;;10.50;99.90;;;;;;5032595;28;20391;-88
2022/01/03 03:08:16;;;;;;;21.95;4.13;;;10.50;99.90;;;;;;5033122;28;20018;-88
2022/01/03 03:10:43;;;;;;;24.38;4.47;;;10.50;99.90;;;;;;5034367;28;20092;-89
2022/01/03 03:13:09;;;;;;;23.65;3.95;;;10.50;99.90;;;;;;5033437;28;20104;-88
2022/01/03 03:15:35;;;;;;;22.52;3.85;;;10.50;99.90;;;;;;5033910;28;20052;-88
2022/01/03 03:18:01;;;;;;;24.98;4.38;;;10.40;99.90;;;;;;5037774;28;20032;-88
2022/01/03 03:20:29;;;;;;;21.85;3.88;;;10.40;99.90;;;;;;5039404;28;20033;-87
2022/01/03 03:22:56;;;;;;;25.42;4.97;;;10.50;99.90;;;;;;5040352;28;20044;-89
2022/01/03 03:25:23;;;;;;;15.82;3.63;;;10.40;99.90;;;;;;5037030;28;20360;-89
2022/01/03 03:27:52;;;;;;;16.17;3.08;;;10.40;99.90;;;;;;5038750;28;20471;-88
2022/01/03 03:30:21;;;;;;;23.45;4.95;;;10.40;99.90;;;;;;5037368;28;20025;-88
2022/01/03 03:32:48;;;;;;;17.98;3.45;;;10.40;99.90;;;;;;5039685;28;20352;-88
2022/01/03 03:35:14;;;;;;;16.33;3.53;;;10.50;99.90;;;;;;5038888;28;20021;-88
2022/01/03 03:37:41;;;;;;;21.25;3.75;;;10.50;99.90;;;;;;5037998;28;20030;-88
2022/01/03 03:40:07;;;;;;;22.38;4.10;;;10.40;99.90;;;;;;5039504;28;20021;-89
2022/01/03 03:42:33;;;;;;;19.55;3.83;;;10.40;99.90;;;;;;5041610;28;20119;-88
2022/01/03 03:44:58;;;;;;;27.80;5.35;;;10.40;99.90;;;;;;5038634;28;20045;-87
2022/01/03 03:47:24;;;;;;;26.67;4.38;;;10.40;99.90;;;;;;5047032;28;20029;-85
2022/01/03 03:49:50;;;;;;;19.35;3.88;;;10.40;99.90;;;;;;5041696;28;20037;-87
2022/01/03 03:52:16;;;;;;;18.85;3.75;;;10.40;99.90;;;;;;5045526;28;20046;-84
2022/01/03 03:54:41;;;;;;;21.67;4.72;;;10.40;99.90;;;;;;5049955;28;20029;-83
2022/01/03 03:57:08;;;;;;;25.17;4.57;;;10.40;99.90;;;;;;5048358;28;20026;-86
2022/01/03 03:59:34;;;;;;;26.10;4.35;;;10.40;99.90;;;;;;5048999;28;20381;-85
2022/01/03 04:02:00;;;;;;;26.38;4.55;;;10.40;99.90;;;;;;5046365;28;20018;-84
2022/01/03 04:04:26;;;;;;;22.63;3.65;;;10.40;99.90;;;;;;5050233;28;20030;-86
2022/01/03 04:06:51;;;;;;;26.40;4.25;;;10.40;99.90;;;;;;5047161;28;20014;-85
2022/01/03 04:09:17;;;;;;;28.70;5.75;;;10.40;99.90;;;;;;5045458;28;20045;-86
2022/01/03 04:11:43;;;;;;;25.65;5.55;;;10.40;99.90;;;;;;5046580;28;20037;-85
2022/01/03 04:14:09;;;;;;;26.80;4.72;;;10.30;99.90;;;;;;5046856;28;20028;-85
2022/01/03 04:16:35;;;;;;;21.50;4.57;;;10.40;99.90;;;;;;5047158;28;20048;-86
2022/01/03 04:19:01;;;;;;;25.90;5.18;;;10.40;99.90;;;;;;5041249;28;20112;-87
2022/01/03 04:21:27;;;;;;;26.45;5.25;;;10.40;99.90;;;;;;5040394;28;20065;-88
2022/01/03 04:23:53;;;;;;;20.38;4.03;;;10.50;99.90;;;;;;5035639;28;20021;-88
2022/01/03 04:26:19;;;;;;;21.25;4.43;;;10.50;99.90;;;;;;5036344;28;20017;-88
2022/01/03 04:28:45;;;;;;;24.63;5.45;;;10.50;99.90;;;;;;5035893;28;20434;-89
2022/01/03 04:31:11;;;;;;;28.00;5.05;;;10.50;99.90;;;;;;5035393;28;20014;-88
2022/01/03 04:33:37;;;;;;;28.63;5.32;;;10.50;99.90;;;;;;5034854;28;20072;-88
2022/01/03 04:36:04;;;;;;;23.25;4.65;;;10.50;99.90;;;;;;5035057;28;20064;-89
2022/01/03 04:38:30;;;;;;;24.33;4.95;;;10.50;99.90;;;;;;5034765;28;20492;-88
2022/01/03 04:40:56;;;;;;;32.30;6.10;;;10.50;99.90;;;;;;5034983;28;20022;-89
2022/01/03 04:43:22;;;;;;;29.95;5.88;;;10.50;99.90;;;;;;5034652;28;20056;-88
2022/01/03 04:45:49;;;;;;;31.08;5.65;;;10.50;99.90;;;;;;5034506;28;20494;-89
2022/01/03 04:48:14;;;;;;;21.58;5.00;;;10.50;99.90;;;;;;5034781;28;20116;-88
2022/01/03 04:50:40;;;;;;;28.10;5.35;;;10.50;99.90;;;;;;5034329;28;20071;-88
2022/01/03 04:53:06;;;;;;;27.63;5.38;;;10.50;99.90;;;;;;5034356;28;20049;-88
2022/01/03 04:55:31;;;;;;;26.70;5.18;;;10.50;99.90;;;;;;5034530;28;20033;-88
2022/01/03 04:57:57;;;;;;;32.28;6.20;;;10.50;99.90;;;;;;5034699;28;20391;-89
2022/01/03 05:00:22;;;;;;;28.00;5.82;;;10.50;99.90;;;;;;5034285;28;20060;-88
2022/01/03 05:02:48;;;;;;;28.20;5.35;;;10.50;99.90;;;;;;5034680;28;20040;-89
2022/01/03 05:05:14;;;;;;;31.65;5.85;;;10.50;99.90;;;;;;5035218;28;20057;-86
2022/01/03 05:07:39;;;;;;;24.52;6.18;;;10.60;99.90;;;;;;5041767;28;20116;-88
2022/01/03 05:10:06;;;;;;;27.67;5.13;;;10.50;99.90;;;;;;5037764;28;20090;-88
2022/01/03 05:12:31;;;;;;;30.90;5.78;;;10.50;99.90;;;;;;5035622;28;20025;-87
2022/01/03 05:14:57;;;;;;;24.02;4.40;;;10.60;99.90;;;;;;5035604;28;20022;-90
2022/01/03 05:17:23;;;;;;;23.25;4.70;;;10.60;99.90;;;;;;5034464;28;20022;-89
2022/01/03 05:19:48;;;;;;;30.73;5.72;;;10.60;99.90;;;;;;5035276;28;20025;-89
2022/01/03 05:22:14;;;;;;;32.40;5.60;;;10.60;99.90;;;;;;5034134;28;20037;-90
2022/01/03 05:24:40;;;;;;;26.45;5.10;;;10.60;99.90;;;;;;5033917;28;20025;-89
2022/01/03 05:27:06;;;;;;;22.92;4.60;;;10.60;99.90;;;;;;5034175;28;20025;-87
2022/01/03 05:29:33;;;;;;;27.63;5.28;;;10.50;99.90;;;;;;5034737;28;20026;-89
2022/01/03 05:31:58;;;;;;;27.45;6.43;;;10.50;99.90;;;;;;5033731;28;20022;-89
2022/01/03 05:34:25;;;;;;;27.38;4.82;;;10.50;99.90;;;;;;5034645;28;20025;-90
2022/01/03 05:36:51;;;;;;;23.08;3.88;;;10.50;99.90;;;;;;5036000;28;20029;-92
2022/01/03 05:39:17;;;;;;;28.73;4.43;;;10.50;99.90;;;;;;5032485;28;20037;-91
2022/01/03 05:41:43;;;;;;;23.17;3.88;;;10.50;99.90;;;;;;5037993;28;20101;-90
2022/01/03 05:44:08;;;;;;;28.23;5.20;;;10.50;99.90;;;;;;5035012;28;20029;-90
2022/01/03 05:46:35;;;;;;;22.80;4.82;;;10.50;99.90;;;;;;5039374;28;20029;-91
2022/01/03 05:49:01;;;;;;;25.35;5.40;;;10.50;99.90;;;;;;5014219;28;20030;-90
2022/01/03 05:51:27;;;;;;;26.70;4.57;;;10.50;99.90;;;;;;5013450;28;20073;-90
2022/01/03 05:53:53;;;;;;;21.55;4.05;;;10.50;99.90;;;;;;5013428;28;20041;-89
2022/01/03 05:56:19;;;;;;;29.45;4.68;;;10.50;99.90;;;;;;5014199;28;20026;-85
2022/01/03 05:58:52;;;;;;;29.92;4.97;;;10.50;99.90;;;;;;5019606;28;20087;-90
2022/01/03 06:01:46;;;;;;;30.13;4.82;;;10.50;99.90;;;;;;5025043;28;20018;-89
2022/01/03 06:04:41;;;;;;;26.10;5.97;;;10.50;99.90;;;;;;4990967;28;20513;-90
2022/01/03 06:07:08;;;;;;;28.63;4.90;;;10.50;99.90;;;;;;5000329;28;20030;-91
2022/01/03 06:09:34;;;;;;;24.58;4.45;;;10.50;99.90;;;;;;4977754;28;20109;-89
2022/01/03 06:12:00;;;;;;;20.85;4.72;;;10.50;99.90;;;;;;4980885;28;20073;-90
2022/01/03 06:14:27;;;;;;;26.23;4.85;;;10.50;99.90;;;;;;4995749;28;20464;-92
2022/01/03 06:16:52;;;;;;;18.42;4.82;;;10.50;99.90;;;;;;4996540;28;20030;-93
2022/01/03 06:19:18;;;;;;;20.75;3.78;;;10.50;99.90;;;;;;4997134;28;20041;-92
2022/01/03 06:21:45;;;;;;;28.35;4.25;;;10.50;99.90;;;;;;4996061;28;20110;-90
2022/01/03 06:24:13;;;;;;;32.72;5.72;;;10.50;99.90;;;;;;4995801;28;20040;-90
2022/01/03 06:26:41;;;;;;;18.73;4.80;;;10.60;99.90;;;;;;4995603;28;20033;-91
2022/01/03 06:29:08;;;;;;;17.95;4.10;;;10.60;99.90;;;;;;4996603;28;20439;-91
2022/01/03 06:31:36;;;;;;;25.83;4.85;;;10.50;99.90;;;;;;4999339;28;20025;-89
2022/01/03 06:34:06;;;;;;;24.90;4.22;;;10.50;99.90;;;;;;5002321;28;20026;-89
2022/01/03 06:36:40;;;;;;;24.88;5.32;;;10.60;99.90;;;;;;5035859;28;20072;-90
2022/01/03 06:39:07;;;;;;;20.15;4.05;;;10.50;99.90;;;;;;5041524;28;20034;-90
2022/01/03 06:41:33;;;;;;;30.85;4.93;;;10.50;99.90;;;;;;5034118;28;20101;-86
2022/01/03 06:43:59;;;;;;;25.63;4.43;;;10.50;99.90;;;;;;5032483;28;20045;-89
2022/01/03 06:46:25;;;;;;;25.88;4.75;;;10.60;99.90;;;;;;5036138;28;20598;-87
2022/01/03 06:48:50;;;;;;;21.98;4.20;;;10.60;99.90;;;;;;5032082;28;20112;-89
2022/01/03 06:51:17;;;;;;;24.48;4.43;;;10.70;99.90;;;;;;5033525;28;20377;-89
2022/01/03 06:53:43;;;;;;;25.92;4.05;;;10.70;99.90;;;;;;5037052;28;20025;-87
2022/01/03 06:56:09;;;;;;;20.55;4.03;;;10.70;99.90;;;;;;5037367;28;20018;-88
2022/01/03 06:58:36;;;;;;;22.38;4.18;;;10.70;99.90;;;;;;5038756;28;20029;-87
2022/01/03 07:01:02;;;;;;;18.45;4.40;;;10.70;99.90;;;;;;5036920;28;20036;-89
2022/01/03 07:03:27;;;;;;;21.67;3.78;;;10.70;99.90;;;;;;5038759;28;20033;-89
2022/01/03 07:05:53;;;;;;;19.83;4.13;;;10.70;99.90;;;;;;5044459;28;20534;-88
2022/01/03 07:08:21;;;;;;;23.58;4.35;;;10.70;99.90;;;;;;5037300;28;20071;-87
2022/01/03 07:10:47;;;;;;;25.33;5.13;;;10.70;99.90;;;;;;5038243;28;20105;-88
2022/01/03 07:13:13;;;;;;;26.60;5.47;;;10.80;99.90;;;;;;5037570;28;20052;-88
2022/01/03 07:21:07;;;;;;;19.58;3.85;;;10.70;99.90;;;;;;5039536;28;20095;-85
2022/01/03 07:23:34;;;;;;;18.23;3.97;;;10.70;99.90;;;;;;5040702;28;20037;-86
2022/01/03 07:26:00;;;;;;;17.85;3.53;;;10.70;99.90;;;;;;5043330;28;20024;-82
2022/01/03 07:28:26;;;;;;;16.73;3.88;;;10.70;99.90;;;;;;5047217;28;20022;-84
2022/01/03 07:30:52;;;;;;;19.17;4.00;;;10.60;99.90;;;;;;5046863;28;20052;-83
2022/01/03 07:33:17;;;;;;;20.92;4.38;;;10.70;99.90;;;;;;5045994;28;20021;-83
2022/01/03 07:35:43;;;;;;;22.55;4.30;;;10.60;99.90;;;;;;5046480;28;20021;-86
2022/01/03 07:38:09;;;;;;;24.65;4.30;;;10.60;99.90;;;;;;5044164;28;20021;-86
2022/01/03 07:40:35;;;;;;;19.85;3.90;;;10.60;99.90;;;;;;5047499;28;20044;-83
2022/01/03 07:43:01;;;;;;;16.02;3.58;;;10.60;99.90;;;;;;5047284;28;20029;-83
2022/01/03 07:45:27;;;;;;;26.70;5.00;;;10.60;99.90;;;;;;5043018;28;20038;-85
2022/01/03 07:47:53;;;;;;;20.15;3.85;;;10.60;99.90;;;;;;5038460;28;20814;-87
2022/01/03 07:50:18;;;;;;;24.50;4.72;;;10.60;99.90;;;;;;5036159;28;20061;-88
2022/01/03 07:52:46;;;;;;;19.95;3.85;;;10.60;99.90;;;;;;5036886;28;20051;-88
2022/01/03 07:55:13;;;;;;;13.13;3.05;;;10.60;99.90;;;;;;5039303;28;20024;-89
2022/01/03 07:57:39;;;;;;;21.83;4.30;;;10.60;99.90;;;;;;5042191;28;20029;-84
2022/01/03 08:00:08;;;;;;;23.27;3.92;;;10.60;99.90;;;;;;5040915;28;20025;-90
2022/01/03 08:02:34;;;;;;;20.10;4.20;;;10.60;99.90;;;;;;5038092;28;20041;-87
2022/01/03 08:05:00;;;;;;;18.90;4.45;;;10.60;99.90;;;;;;5035668;28;20021;-87
2022/01/03 08:07:25;;;;;;;16.05;3.72;;;10.50;99.90;;;;;;5038610;28;20108;-87
2022/01/03 08:09:51;;;;;;;22.27;4.55;;;10.60;99.90;;;;;;5039484;28;20021;-87
2022/01/03 08:12:17;;;;;;;18.77;4.28;;;10.50;99.90;;;;;;5035531;28;20502;-88
2022/01/03 08:14:44;;;;;;;17.63;3.95;;;10.60;99.90;;;;;;5037483;28;20116;-87
2022/01/03 08:17:10;;;;;;;15.77;3.47;;;10.60;99.90;;;;;;5035990;28;20017;-88
2022/01/03 08:19:38;;;;;;;20.83;3.83;;;10.60;99.90;;;;;;5043281;28;20360;-83
2022/01/03 08:22:05;;;;;;;18.05;3.80;;;10.60;99.90;;;;;;5039893;28;20107;-88
2022/01/03 08:24:31;;;;;;;21.13;3.88;;;10.60;99.90;;;;;;5035116;28;20026;-88
2022/01/03 08:26:56;;;;;;;17.35;3.67;;;10.60;99.90;;;;;;5035391;28;20036;-88
2022/01/03 08:29:22;;;;;;;21.35;4.50;;;10.60;99.90;;;;;;5050562;28;20033;-89
2022/01/03 08:31:47;;;;;;;18.30;4.38;;;10.60;99.90;;;;;;5037041;28;20448;-89
2022/01/03 08:34:13;;;;;;;22.17;3.70;;;10.70;99.90;;;;;;5034593;28;20379;-87
2022/01/03 08:36:40;;;;;;;17.48;3.90;;;10.70;99.90;;;;;;5040965;28;20044;-90
2022/01/03 08:39:06;;;;;;;20.67;4.32;;;10.70;99.90;;;;;;5039819;28;20623;-86
2022/01/03 08:41:33;;;;;;;19.25;4.15;;;10.70;99.90;;;;;;5040574;28;20025;-93
2022/01/03 08:44:00;;;;;;;20.92;4.38;;;10.80;99.90;;;;;;5040620;28;20025;-88
2022/01/03 08:46:26;;;;;;;19.27;4.85;;;10.70;99.90;;;;;;5037342;28;20029;-88
2022/01/03 08:48:59;;;;;;;24.48;4.70;;;10.70;99.90;;;;;;5042437;28;20030;-86
2022/01/03 08:51:28;;;;;;;23.17;4.88;;;10.70;99.90;;;;;;5033435;28;20053;-89
2022/01/03 08:53:56;;;;;;;17.67;3.42;;;10.80;99.90;;;;;;5041270;28;20029;-87
2022/01/03 08:56:21;;;;;;;15.73;3.65;;;10.80;99.90;;;;;;5036633;28;20021;-89
2022/01/03 08:58:47;;;;;;;18.48;3.72;;;10.80;99.90;;;;;;5036647;28;20033;-89
2022/01/03 09:01:13;;;;;;;17.42;3.50;;;10.70;99.90;;;;;;5034389;28;20411;-88
2022/01/03 09:03:39;;;;;;;17.15;4.68;;;10.80;99.90;;;;;;5034648;28;20045;-91
2022/01/03 09:06:05;;;;;;;23.10;4.65;;;10.80;99.90;;;;;;5037681;28;20021;-89
2022/01/03 09:08:30;;;;;;;16.55;3.78;;;10.80;99.90;;;;;;5055346;28;20027;-89
2022/01/03 09:11:00;;;;;;;17.63;3.85;;;10.80;99.90;;;;;;5056495;28;20021;-87
2022/01/03 09:13:26;;;;;;;17.13;3.95;;;10.80;99.90;;;;;;5049552;28;20154;-88
2022/01/03 09:15:56;;;;;;;17.17;3.95;;;10.90;99.90;;;;;;5042291;28;20033;-84
2022/01/03 09:18:24;;;;;;;19.00;4.78;;;10.90;99.90;;;;;;5039490;28;20048;-90
2022/01/03 09:20:50;;;;;;;19.10;3.72;;;10.90;99.90;;;;;;5036776;28;20087;-89
2022/01/03 09:23:25;;;;;;;15.18;4.15;;;10.90;99.90;;;;;;5038944;28;20029;-88
2022/01/03 09:28:56;;;;;;;26.45;4.72;;;10.90;99.90;;;;;;5049045;28;20040;-90
2022/01/03 09:31:36;;;;;;;21.58;3.65;;;10.90;99.90;;;;;;5060930;28;20235;-86
2022/01/03 09:34:09;;;;;;;18.63;4.07;;;10.90;99.90;;;;;;5042062;28;20499;-85
2022/01/03 09:36:37;;;;;;;17.95;4.25;;;10.90;99.90;;;;;;5045933;28;20032;-85
2022/01/03 09:39:12;;;;;;;15.40;4.15;;;10.90;99.90;;;;;;5042924;28;20026;-84
2022/01/03 09:41:56;;;;;;;24.48;4.60;;;10.90;99.90;;;;;;5041911;28;20017;-89
2022/01/03 09:44:28;;;;;;;17.65;4.03;;;10.90;99.90;;;;;;5022000;28;20037;-88
2022/01/03 09:46:58;;;;;;;25.02;5.10;;;10.90;99.90;;;;;;5039216;28;20100;-89
2022/01/03 09:49:27;;;;;;;15.73;3.67;;;10.80;99.90;;;;;;5047463;28;20124;-86
2022/01/03 09:51:53;;;;;;;23.38;3.85;;;10.80;99.90;;;;;;5030043;28;20072;-87
2022/01/03 09:54:22;;;;;;;18.85;4.03;;;10.90;99.90;;;;;;5040924;28;20018;-89
2022/01/03 09:56:51;;;;;;;20.75;4.72;;;10.80;99.90;;;;;;5040980;28;20080;-85
2022/01/03 09:59:18;;;;;;;24.85;4.88;;;10.80;99.90;;;;;;5042446;28;20056;-84
2022/01/03 10:01:45;;;;;;;17.58;3.67;;;10.80;99.90;;;;;;5044123;28;20029;-84
2022/01/03 10:04:13;;;;;;;23.17;4.95;;;10.80;99.90;;;;;;5042558;28;20025;-88
2022/01/03 10:06:40;;;;;;;19.65;6.00;;;10.80;99.90;;;;;;5036749;28;20022;-86
2022/01/03 10:09:05;;;;;;;21.42;4.03;;;10.90;99.90;;;;;;5036764;28;20018;-89
2022/01/03 10:11:31;;;;;;;22.33;4.75;;;10.90;99.90;;;;;;5050002;28;20079;-88
2022/01/03 10:13:58;;;;;;;20.63;3.88;;;10.80;99.90;;;;;;5030837;28;20030;-88
2022/01/03 10:16:24;;;;;;;15.77;4.05;;;10.80;99.90;;;;;;5033840;28;20022;-88
2022/01/03 10:18:50;;;;;;;25.25;4.97;;;10.80;99.90;;;;;;5033845;28;20038;-87
2022/01/03 10:21:32;;;;;;;23.70;4.65;;;10.80;99.90;;;;;;5032500;28;20483;-88
2022/01/03 10:23:58;;;;;;;18.23;3.67;;;10.90;99.90;;;;;;5030753;28;20036;-88
2022/01/03 10:26:24;;;;;;;21.65;5.28;;;11.00;99.90;;;;;;5031580;28;20030;-88
2022/01/03 10:28:51;;;;;;;21.63;4.80;;;11.00;99.90;;;;;;5031254;28;20022;-88
2022/01/03 10:31:19;;;;;;;20.50;4.18;;;11.10;99.90;;;;;;5033790;28;20018;-92
2022/01/03 10:33:46;;;;;;;18.77;3.55;;;11.10;99.90;;;;;;5032684;28;20031;-91
2022/01/03 10:36:29;;;;;;;16.85;4.05;;;11.10;99.90;;;;;;5039423;28;20017;-88
2022/01/03 10:38:55;;;;;;;24.05;4.97;;;11.10;99.90;;;;;;5042978;28;20485;-87
2022/01/03 10:41:23;;;;;;;20.45;4.40;;;11.40;99.90;;;;;;5042497;28;20096;-85
2022/01/03 10:43:55;;;;;;;18.05;4.35;;;11.70;99.90;;;;;;5044197;28;20025;-84
2022/01/03 10:46:35;;;;;;;18.65;3.88;;;11.90;99.90;;;;;;5042433;28;20017;-85
2022/01/03 10:49:16;;;;;;;18.02;4.07;;;12.40;99.90;;;;;;5041973;28;20060;-86
2022/01/03 10:51:43;;;;;;;23.63;4.60;;;12.80;99.90;;;;;;5036973;28;20041;-89
2022/01/03 10:54:12;;;;;;;20.98;4.78;;;13.30;99.90;;;;;;5035243;28;20120;-87
2022/01/03 10:56:48;;;;;;;19.02;4.50;;;13.30;99.90;;;;;;5032703;28;20525;-89
2022/01/03 10:59:34;;;;;;;23.17;4.18;;;13.10;99.90;;;;;;5034164;28;20056;-91
2022/01/03 11:02:01;;;;;;;22.67;5.15;;;13.00;99.90;;;;;;5033404;28;20033;-90
2022/01/03 11:04:33;;;;;;;19.70;3.95;;;12.80;99.90;;;;;;5033531;28;20033;-90
2022/01/03 11:13:10;;;;;;;23.23;4.28;;;12.20;99.90;;;;;;5039891;28;20036;-89
2022/01/03 11:15:39;;;;;;;17.77;4.03;;;11.90;99.90;;;;;;5016041;28;20026;-90
2022/01/03 11:18:32;;;;;;;21.33;4.78;;;11.70;99.90;;;;;;5004333;28;20103;-91
2022/01/03 11:21:13;;;;;;;20.77;4.63;;;11.60;99.90;;;;;;5024617;28;20052;-89
2022/01/03 11:24:03;;;;;;;21.02;4.45;;;11.60;99.90;;;;;;5023637;28;20045;-90
2022/01/03 11:26:49;;;;;;;18.33;4.10;;;11.60;99.90;;;;;;5026333;28;20394;-90
2022/01/03 11:29:15;;;;;;;20.67;4.85;;;11.70;99.90;;;;;;5033428;28;20426;-90
2022/01/03 11:31:42;;;;;;;18.27;4.03;;;12.10;99.90;;;;;;5042292;28;20033;-89
2022/01/03 11:34:09;;;;;;;17.45;3.78;;;12.40;99.90;;;;;;5030028;28;20018;-83
2022/01/03 11:36:41;;;;;;;21.77;4.45;;;12.60;99.90;;;;;;5036121;28;20026;-84
2022/01/03 11:39:14;;;;;;;21.27;4.10;;;13.00;99.90;;;;;;5036517;28;20025;-85
2022/01/03 11:41:59;;;;;;;16.63;4.13;;;13.40;99.90;;;;;;5039942;28;20057;-88
2022/01/03 11:44:54;;;;;;;21.60;4.78;;;13.40;99.90;;;;;;5043526;28;20017;-88
2022/01/03 11:47:20;;;;;;;20.27;4.28;;;13.10;99.90;;;;;;5033581;28;20037;-87
2022/01/03 11:49:46;;;;;;;18.05;3.55;;;12.70;99.90;;;;;;5037398;28;20040;-88
2022/01/03 11:52:15;;;;;;;27.75;5.05;;;12.50;99.90;;;;;;5037273;28;20128;-87
2022/01/03 11:54:42;;;;;;;23.00;4.32;;;12.30;99.90;;;;;;5039092;28;20109;-83
2022/01/03 11:57:28;;;;;;;15.90;3.75;;;12.20;99.90;;;;;;5038720;28;20013;-87
2022/01/03 12:06:12;;;;;;;17.30;3.50;;;11.70;99.90;;;;;;5045497;28;20773;-86
2022/01/03 12:09:05;;;;;;;14.57;3.60;;;11.70;99.90;;;;;;5029502;28;20104;-84
2022/01/03 12:11:31;;;;;;;16.63;3.45;;;11.70;99.90;;;;;;5042444;28;20017;-86
2022/01/03 12:15:02;;;;;;;24.73;4.32;;;11.70;99.90;;;;;;5036947;28;20157;-84
2022/01/03 12:18:03;;;;;;;16.02;3.35;;;11.80;99.90;;;;;;5036144;28;20060;-84
2022/01/03 12:20:52;;;;;;;15.80;3.33;;;11.80;99.90;;;;;;5035674;28;20171;-84
2022/01/03 12:23:41;;;;;;;14.55;3.53;;;11.90;99.90;;;;;;5032158;22;20137;-85
2022/01/03 12:26:23;;;;;;;21.13;3.80;;;11.80;99.90;;;;;;4998520;28;20053;-89
2022/01/03 12:29:06;;;;;;;17.98;3.60;;;11.70;99.90;;;;;;4992399;28;20027;-86
2022/01/03 12:32:02;;;;;;;17.58;4.43;;;11.60;99.90;;;;;;4980974;28;20085;-90
2022/01/03 12:34:27;;;;;;;14.00;3.40;;;11.50;99.90;;;;;;4925950;28;20048;-88
2022/01/03 12:37:16;;;;;;;16.30;4.13;;;11.50;99.90;;;;;;4995129;28;20036;-89
2022/01/03 12:40:04;;;;;;;13.55;4.03;;;11.40;99.90;;;;;;4975819;28;20536;-87
2022/01/03 12:45:19;;;;;;;19.63;3.83;;;11.40;99.90;;;;;;4990700;28;20117;-87
2022/01/03 12:47:45;;;;;;;16.52;3.90;;;11.40;99.90;;;;;;4975023;28;20038;-85
2022/01/03 12:50:19;;;;;;;17.70;4.32;;;11.50;99.90;;;;;;4983186;28;20027;-88
2022/01/03 12:52:45;;;;;;;20.25;4.45;;;11.50;99.90;;;;;;4974334;28;20038;-87
2022/01/03 12:55:18;;;;;;;15.88;3.38;;;11.50;99.90;;;;;;4965591;28;20384;-89
2022/01/03 12:57:44;;;;;;;19.30;3.60;;;11.50;99.90;;;;;;4979292;28;20077;-87
2022/01/03 13:00:43;;;;;;;15.73;3.30;;;11.50;99.90;;;;;;4979344;28;20026;-86
2022/01/03 13:03:28;;;;;;;14.50;3.10;;;11.50;99.90;;;;;;4997523;28;20113;-88
2022/01/03 13:06:13;;;;;;;11.63;2.92;;;11.50;99.90;;;;;;4972394;28;20023;-90
2022/01/03 13:08:58;;;;;;;20.20;3.97;;;11.40;99.90;;;;;;4978156;28;20038;-88
2022/01/03 13:11:24;;;;;;;15.93;3.38;;;11.40;99.90;;;;;;4960512;28;20029;-89
2022/01/03 13:13:52;;;;;;;14.10;2.97;;;11.40;99.90;;;;;;4977817;28;20018;-89